sensor_id;sensor_type;location;lat;lon;timestamp;temperature;humidity
21759;DHT22;11041;50.854;20.580;2024-01-25T00:00:50;6.90;99.90
21759;DHT22;11041;50.854;20.580;2024-01-25T00:03:37;6.80;99.90
21759;DHT22;11041;50.854;20.580;2024-01-25T00:06:07;6.80;99.90
21759;DHT22;11041;50.854;20.580;2024-01-25T00:08:34;6.80;99.90
21759;DHT22;11041;50.854;20.580;2024-01-25T00:11:04;6.80;99.90
21759;DHT22;11041;50.854;20.580;2024-01-25T00:13:32;6.80;99.90
21759;DHT22;11041;50.854;20.580;2024-01-25T00:15:58;6.80;99.90
21759;DHT22;11041;50.854;20.580;2024-01-25T00:18:25;6.70;99.90
21759;DHT22;11041;50.854;20.580;2024-01-25T00:20:52;6.80;99.90
21759;DHT22;11041;50.854;20.580;2024-01-25T00:23:19;6.70;99.90
21759;DHT22;11041;50.854;20.580;2024-01-25T00:25:46;6.70;99.90
21759;DHT22;11041;50.854;20.580;2024-01-25T00:28:14;6.70;99.90
21759;DHT22;11041;50.854;20.580;2024-01-25T00:30:41;6.70;99.90
21759;DHT22;11041;50.854;20.580;2024-01-25T00:33:08;6.70;99.90
21759;DHT22;11041;50.854;20.580;2024-01-25T00:35:35;6.60;99.90
21759;DHT22;11041;50.854;20.580;2024-01-25T00:38:04;6.60;99.90
21759;DHT22;11041;50.854;20.580;2024-01-25T00:40:31;6.60;99.90
21759;DHT22;11041;50.854;20.580;2024-01-25T00:42:58;6.60;99.90
21759;DHT22;11041;50.854;20.580;2024-01-25T00:45:27;6.70;99.90
21759;DHT22;11041;50.854;20.580;2024-01-25T00:47:54;6.60;99.90
21759;DHT22;11041;50.854;20.580;2024-01-25T00:50:23;6.60;99.90
21759;DHT22;11041;50.854;20.580;2024-01-25T00:52:52;6.70;99.90
21759;DHT22;11041;50.854;20.580;2024-01-25T00:55:21;6.70;99.90
21759;DHT22;11041;50.854;20.580;2024-01-25T00:57:50;6.70;99.90
21759;DHT22;11041;50.854;20.580;2024-01-25T01:00:20;6.70;99.90
21759;DHT22;11041;50.854;20.580;2024-01-25T01:02:47;6.70;99.90
21759;DHT22;11041;50.854;20.580;2024-01-25T01:05:14;6.70;99.90
21759;DHT22;11041;50.854;20.580;2024-01-25T01:07:43;6.70;99.90
21759;DHT22;11041;50.854;20.580;2024-01-25T01:10:11;6.60;99.90
21759;DHT22;11041;50.854;20.580;2024-01-25T01:12:39;6.60;99.90
21759;DHT22;11041;50.854;20.580;2024-01-25T01:15:07;6.60;99.90
21759;DHT22;11041;50.854;20.580;2024-01-25T01:17:36;6.60;99.90
21759;DHT22;11041;50.854;20.580;2024-01-25T01:20:03;6.70;99.90
21759;DHT22;11041;50.854;20.580;2024-01-25T01:22:34;6.70;99.90
21759;DHT22;11041;50.854;20.580;2024-01-25T01:25:02;6.70;99.90
21759;DHT22;11041;50.854;20.580;2024-01-25T01:27:31;6.70;99.90
21759;DHT22;11041;50.854;20.580;2024-01-25T01:29:58;6.70;99.90
21759;DHT22;11041;50.854;20.580;2024-01-25T01:32:25;6.70;99.90
21759;DHT22;11041;50.854;20.580;2024-01-25T01:34:53;6.70;99.90
21759;DHT22;11041;50.854;20.580;2024-01-25T01:37:22;6.70;99.90
21759;DHT22;11041;50.854;20.580;2024-01-25T01:39:53;6.70;99.90
21759;DHT22;11041;50.854;20.580;2024-01-25T01:42:21;6.70;99.90
21759;DHT22;11041;50.854;20.580;2024-01-25T01:44:50;6.70;99.90
21759;DHT22;11041;50.854;20.580;2024-01-25T01:47:19;6.70;99.90
21759;DHT22;11041;50.854;20.580;2024-01-25T01:49:47;6.60;99.90
21759;DHT22;11041;50.854;20.580;2024-01-25T01:52:15;6.50;99.90
21759;DHT22;11041;50.854;20.580;2024-01-25T01:54:46;6.50;99.90
21759;DHT22;11041;50.854;20.580;2024-01-25T01:57:13;6.50;99.90
21759;DHT22;11041;50.854;20.580;2024-01-25T01:59:42;6.50;99.90
21759;DHT22;11041;50.854;20.580;2024-01-25T02:02:08;6.40;99.90
21759;DHT22;11041;50.854;20.580;2024-01-25T02:04:36;6.40;99.90
21759;DHT22;11041;50.854;20.580;2024-01-25T02:07:07;6.40;99.90
21759;DHT22;11041;50.854;20.580;2024-01-25T02:09:35;6.40;99.90
21759;DHT22;11041;50.854;20.580;2024-01-25T02:12:02;6.20;99.90
21759;DHT22;11041;50.854;20.580;2024-01-25T02:14:30;6.20;99.90
21759;DHT22;11041;50.854;20.580;2024-01-25T02:16:57;6.00;99.90
21759;DHT22;11041;50.854;20.580;2024-01-25T02:19:24;5.90;99.90
21759;DHT22;11041;50.854;20.580;2024-01-25T02:21:53;5.90;99.90
21759;DHT22;11041;50.854;20.580;2024-01-25T02:24:23;5.90;99.90
21759;DHT22;11041;50.854;20.580;2024-01-25T02:26:51;5.90;99.90
21759;DHT22;11041;50.854;20.580;2024-01-25T02:29:18;5.90;99.90
21759;DHT22;11041;50.854;20.580;2024-01-25T02:31:45;5.90;99.90
21759;DHT22;11041;50.854;20.580;2024-01-25T02:34:13;5.90;99.90
21759;DHT22;11041;50.854;20.580;2024-01-25T02:36:39;5.90;99.90
21759;DHT22;11041;50.854;20.580;2024-01-25T02:39:08;6.00;99.90
21759;DHT22;11041;50.854;20.580;2024-01-25T02:41:34;6.00;99.90
21759;DHT22;11041;50.854;20.580;2024-01-25T02:44:01;6.00;99.90
21759;DHT22;11041;50.854;20.580;2024-01-25T02:46:29;6.00;99.90
21759;DHT22;11041;50.854;20.580;2024-01-25T02:48:56;6.00;99.90
21759;DHT22;11041;50.854;20.580;2024-01-25T02:51:24;5.90;99.90
21759;DHT22;11041;50.854;20.580;2024-01-25T02:53:54;6.00;99.90
21759;DHT22;11041;50.854;20.580;2024-01-25T02:56:21;6.00;99.90
21759;DHT22;11041;50.854;20.580;2024-01-25T02:58:49;6.00;99.90
21759;DHT22;11041;50.854;20.580;2024-01-25T03:01:16;6.00;99.90
21759;DHT22;11041;50.854;20.580;2024-01-25T03:03:43;6.00;99.90
21759;DHT22;11041;50.854;20.580;2024-01-25T03:06:10;6.00;99.90
21759;DHT22;11041;50.854;20.580;2024-01-25T03:08:39;6.00;99.90
21759;DHT22;11041;50.854;20.580;2024-01-25T03:11:05;6.00;99.90
21759;DHT22;11041;50.854;20.580;2024-01-25T03:13:32;6.00;99.90
21759;DHT22;11041;50.854;20.580;2024-01-25T03:16:00;6.00;99.90
21759;DHT22;11041;50.854;20.580;2024-01-25T03:18:32;6.00;99.90
21759;DHT22;11041;50.854;20.580;2024-01-25T03:21:00;6.00;99.90
21759;DHT22;11041;50.854;20.580;2024-01-25T03:23:29;6.10;99.90
21759;DHT22;11041;50.854;20.580;2024-01-25T03:25:57;6.10;99.90
21759;DHT22;11041;50.854;20.580;2024-01-25T03:28:27;6.10;99.90
21759;DHT22;11041;50.854;20.580;2024-01-25T03:30:55;6.00;99.90
21759;DHT22;11041;50.854;20.580;2024-01-25T03:33:22;5.80;99.90
21759;DHT22;11041;50.854;20.580;2024-01-25T03:35:48;5.60;99.90
21759;DHT22;11041;50.854;20.580;2024-01-25T03:38:18;5.60;99.90
21759;DHT22;11041;50.854;20.580;2024-01-25T03:40:44;5.50;99.90
21759;DHT22;11041;50.854;20.580;2024-01-25T03:43:12;5.50;99.90
21759;DHT22;11041;50.854;20.580;2024-01-25T03:45:38;5.50;99.90
21759;DHT22;11041;50.854;20.580;2024-01-25T03:48:10;5.50;99.90
21759;DHT22;11041;50.854;20.580;2024-01-25T03:50:38;5.60;99.90
21759;DHT22;11041;50.854;20.580;2024-01-25T03:53:07;5.50;99.90
21759;DHT22;11041;50.854;20.580;2024-01-25T03:55:36;5.50;99.90
21759;DHT22;11041;50.854;20.580;2024-01-25T03:58:03;5.50;99.90
21759;DHT22;11041;50.854;20.580;2024-01-25T04:00:30;5.50;99.90
21759;DHT22;11041;50.854;20.580;2024-01-25T04:03:00;5.60;99.90
21759;DHT22;11041;50.854;20.580;2024-01-25T04:05:27;5.60;99.90
21759;DHT22;11041;50.854;20.580;2024-01-25T04:07:53;5.60;99.90
21759;DHT22;11041;50.854;20.580;2024-01-25T04:10:19;5.50;99.90
21759;DHT22;11041;50.854;20.580;2024-01-25T04:12:48;5.50;99.90
21759;DHT22;11041;50.854;20.580;2024-01-25T04:15:20;5.40;99.90
21759;DHT22;11041;50.854;20.580;2024-01-25T04:17:49;5.40;99.90
21759;DHT22;11041;50.854;20.580;2024-01-25T04:20:16;5.30;99.90
21759;DHT22;11041;50.854;20.580;2024-01-25T04:22:42;5.30;99.90
21759;DHT22;11041;50.854;20.580;2024-01-25T04:25:11;5.30;99.90
21759;DHT22;11041;50.854;20.580;2024-01-25T04:27:39;5.20;99.90
21759;DHT22;11041;50.854;20.580;2024-01-25T04:30:09;5.30;99.90
21759;DHT22;11041;50.854;20.580;2024-01-25T04:32:39;5.20;99.90
21759;DHT22;11041;50.854;20.580;2024-01-25T04:35:07;5.30;99.90
21759;DHT22;11041;50.854;20.580;2024-01-25T04:37:36;5.20;99.90
21759;DHT22;11041;50.854;20.580;2024-01-25T04:40:04;5.20;99.90
21759;DHT22;11041;50.854;20.580;2024-01-25T04:42:31;5.30;99.90
21759;DHT22;11041;50.854;20.580;2024-01-25T04:44:57;5.30;99.90
21759;DHT22;11041;50.854;20.580;2024-01-25T04:47:24;5.30;99.90
21759;DHT22;11041;50.854;20.580;2024-01-25T04:49:53;5.30;99.90
21759;DHT22;11041;50.854;20.580;2024-01-25T04:52:20;5.20;99.90
21759;DHT22;11041;50.854;20.580;2024-01-25T04:54:46;5.20;99.90
21759;DHT22;11041;50.854;20.580;2024-01-25T04:57:16;5.20;99.90
21759;DHT22;11041;50.854;20.580;2024-01-25T04:59:43;5.20;99.90
21759;DHT22;11041;50.854;20.580;2024-01-25T05:02:09;5.10;99.90
21759;DHT22;11041;50.854;20.580;2024-01-25T05:04:37;5.10;99.90
21759;DHT22;11041;50.854;20.580;2024-01-25T05:07:04;5.00;99.90
21759;DHT22;11041;50.854;20.580;2024-01-25T05:09:32;4.90;99.90
21759;DHT22;11041;50.854;20.580;2024-01-25T05:12:02;5.00;99.90
21759;DHT22;11041;50.854;20.580;2024-01-25T05:14:29;4.90;99.90
21759;DHT22;11041;50.854;20.580;2024-01-25T05:16:56;4.90;99.90
21759;DHT22;11041;50.854;20.580;2024-01-25T05:19:22;4.90;99.90
21759;DHT22;11041;50.854;20.580;2024-01-25T05:21:52;4.90;99.90
21759;DHT22;11041;50.854;20.580;2024-01-25T05:24:21;4.90;99.90
21759;DHT22;11041;50.854;20.580;2024-01-25T05:26:49;5.00;99.90
21759;DHT22;11041;50.854;20.580;2024-01-25T05:29:17;5.00;99.90
21759;DHT22;11041;50.854;20.580;2024-01-25T05:31:44;4.90;99.90
21759;DHT22;11041;50.854;20.580;2024-01-25T05:34:11;5.00;99.90
21759;DHT22;11041;50.854;20.580;2024-01-25T05:36:38;4.90;99.90
21759;DHT22;11041;50.854;20.580;2024-01-25T05:39:04;5.00;99.90
21759;DHT22;11041;50.854;20.580;2024-01-25T05:41:32;5.00;99.90
21759;DHT22;11041;50.854;20.580;2024-01-25T05:44:01;5.00;99.90
21759;DHT22;11041;50.854;20.580;2024-01-25T05:46:28;5.10;99.90
21759;DHT22;11041;50.854;20.580;2024-01-25T05:48:55;5.10;99.90
21759;DHT22;11041;50.854;20.580;2024-01-25T05:51:23;5.10;99.90
21759;DHT22;11041;50.854;20.580;2024-01-25T05:53:49;5.20;99.90
21759;DHT22;11041;50.854;20.580;2024-01-25T05:56:16;5.10;99.90
21759;DHT22;11041;50.854;20.580;2024-01-25T05:58:45;5.20;99.90
21759;DHT22;11041;50.854;20.580;2024-01-25T06:01:13;5.10;99.90
21759;DHT22;11041;50.854;20.580;2024-01-25T06:03:40;5.10;99.90
21759;DHT22;11041;50.854;20.580;2024-01-25T06:06:07;5.10;99.90
21759;DHT22;11041;50.854;20.580;2024-01-25T06:08:37;5.00;99.90
21759;DHT22;11041;50.854;20.580;2024-01-25T06:11:03;5.00;99.90
21759;DHT22;11041;50.854;20.580;2024-01-25T06:13:31;5.00;99.90
21759;DHT22;11041;50.854;20.580;2024-01-25T06:15:58;5.00;99.90
21759;DHT22;11041;50.854;20.580;2024-01-25T06:18:25;4.90;99.90
21759;DHT22;11041;50.854;20.580;2024-01-25T06:20:55;4.90;99.90
21759;DHT22;11041;50.854;20.580;2024-01-25T06:23:21;4.90;99.90
21759;DHT22;11041;50.854;20.580;2024-01-25T06:25:48;4.90;99.90
21759;DHT22;11041;50.854;20.580;2024-01-25T06:28:17;4.90;99.90
21759;DHT22;11041;50.854;20.580;2024-01-25T06:30:45;4.90;99.90
21759;DHT22;11041;50.854;20.580;2024-01-25T06:33:13;4.90;99.90
21759;DHT22;11041;50.854;20.580;2024-01-25T06:35:39;4.80;99.90
21759;DHT22;11041;50.854;20.580;2024-01-25T06:38:08;4.80;99.90
21759;DHT22;11041;50.854;20.580;2024-01-25T06:40:37;4.90;99.90
21759;DHT22;11041;50.854;20.580;2024-01-25T06:43:04;4.90;99.90
21759;DHT22;11041;50.854;20.580;2024-01-25T06:45:33;4.80;99.90
21759;DHT22;11041;50.854;20.580;2024-01-25T06:47:59;4.80;99.90
21759;DHT22;11041;50.854;20.580;2024-01-25T06:50:26;4.80;99.90
21759;DHT22;11041;50.854;20.580;2024-01-25T06:52:52;4.70;99.90
21759;DHT22;11041;50.854;20.580;2024-01-25T06:55:19;4.70;99.90
21759;DHT22;11041;50.854;20.580;2024-01-25T06:57:49;4.70;99.90
21759;DHT22;11041;50.854;20.580;2024-01-25T07:00:18;4.70;99.90
21759;DHT22;11041;50.854;20.580;2024-01-25T07:02:46;4.70;99.90
21759;DHT22;11041;50.854;20.580;2024-01-25T07:05:13;4.70;99.90
21759;DHT22;11041;50.854;20.580;2024-01-25T07:07:41;4.60;99.90
21759;DHT22;11041;50.854;20.580;2024-01-25T07:10:10;4.60;99.90
21759;DHT22;11041;50.854;20.580;2024-01-25T07:12:39;4.60;99.90
21759;DHT22;11041;50.854;20.580;2024-01-25T07:15:07;4.60;99.90
21759;DHT22;11041;50.854;20.580;2024-01-25T07:17:36;4.70;99.90
21759;DHT22;11041;50.854;20.580;2024-01-25T07:20:06;4.70;99.90
21759;DHT22;11041;50.854;20.580;2024-01-25T07:22:36;4.70;99.90
21759;DHT22;11041;50.854;20.580;2024-01-25T07:25:07;4.70;99.90
21759;DHT22;11041;50.854;20.580;2024-01-25T07:27:36;4.60;99.90
21759;DHT22;11041;50.854;20.580;2024-01-25T07:30:03;4.60;99.90
21759;DHT22;11041;50.854;20.580;2024-01-25T07:32:33;4.60;99.90
21759;DHT22;11041;50.854;20.580;2024-01-25T07:35:01;4.70;99.90
21759;DHT22;11041;50.854;20.580;2024-01-25T07:37:28;4.70;99.90
21759;DHT22;11041;50.854;20.580;2024-01-25T07:39:56;4.70;99.90
21759;DHT22;11041;50.854;20.580;2024-01-25T07:42:24;4.80;99.90
21759;DHT22;11041;50.854;20.580;2024-01-25T07:44:52;4.80;99.90
21759;DHT22;11041;50.854;20.580;2024-01-25T07:47:20;4.80;99.90
21759;DHT22;11041;50.854;20.580;2024-01-25T07:49:48;4.80;99.90
21759;DHT22;11041;50.854;20.580;2024-01-25T07:52:14;4.80;99.90
21759;DHT22;11041;50.854;20.580;2024-01-25T07:54:41;4.80;99.90
21759;DHT22;11041;50.854;20.580;2024-01-25T07:57:09;4.90;99.90
21759;DHT22;11041;50.854;20.580;2024-01-25T07:59:37;4.90;99.90
21759;DHT22;11041;50.854;20.580;2024-01-25T08:02:05;4.90;99.90
21759;DHT22;11041;50.854;20.580;2024-01-25T08:04:35;4.90;99.90
21759;DHT22;11041;50.854;20.580;2024-01-25T08:07:04;4.90;99.90
21759;DHT22;11041;50.854;20.580;2024-01-25T08:09:31;4.80;99.90
21759;DHT22;11041;50.854;20.580;2024-01-25T08:11:57;4.80;99.90
21759;DHT22;11041;50.854;20.580;2024-01-25T08:14:24;4.90;99.90
21759;DHT22;11041;50.854;20.580;2024-01-25T08:16:52;4.90;99.90
21759;DHT22;11041;50.854;20.580;2024-01-25T08:19:21;4.90;99.90
21759;DHT22;11041;50.854;20.580;2024-01-25T08:21:50;4.90;99.90
21759;DHT22;11041;50.854;20.580;2024-01-25T08:24:18;4.80;99.90
21759;DHT22;11041;50.854;20.580;2024-01-25T08:26:44;4.80;99.90
21759;DHT22;11041;50.854;20.580;2024-01-25T08:29:11;4.80;99.90
21759;DHT22;11041;50.854;20.580;2024-01-25T08:31:40;4.80;99.90
21759;DHT22;11041;50.854;20.580;2024-01-25T08:34:07;4.80;99.90
21759;DHT22;11041;50.854;20.580;2024-01-25T08:36:36;4.90;99.90
21759;DHT22;11041;50.854;20.580;2024-01-25T08:39:03;4.90;99.90
21759;DHT22;11041;50.854;20.580;2024-01-25T08:41:32;4.90;99.90
21759;DHT22;11041;50.854;20.580;2024-01-25T08:44:00;4.90;99.90
21759;DHT22;11041;50.854;20.580;2024-01-25T08:46:28;5.00;99.90
21759;DHT22;11041;50.854;20.580;2024-01-25T08:48:56;4.90;99.90
21759;DHT22;11041;50.854;20.580;2024-01-25T08:51:22;5.00;99.90
21759;DHT22;11041;50.854;20.580;2024-01-25T08:53:49;5.00;99.90
21759;DHT22;11041;50.854;20.580;2024-01-25T08:56:17;5.00;99.90
21759;DHT22;11041;50.854;20.580;2024-01-25T08:58:45;5.00;99.90
21759;DHT22;11041;50.854;20.580;2024-01-25T09:01:13;5.00;99.90
21759;DHT22;11041;50.854;20.580;2024-01-25T09:03:40;5.10;99.90
21759;DHT22;11041;50.854;20.580;2024-01-25T09:06:08;5.00;99.90
21759;DHT22;11041;50.854;20.580;2024-01-25T09:08:36;5.10;99.90
21759;DHT22;11041;50.854;20.580;2024-01-25T09:11:04;5.10;99.90
21759;DHT22;11041;50.854;20.580;2024-01-25T09:13:31;4.90;99.90
21759;DHT22;11041;50.854;20.580;2024-01-25T09:15:58;4.80;99.90
21759;DHT22;11041;50.854;20.580;2024-01-25T09:18:25;4.80;99.90
21759;DHT22;11041;50.854;20.580;2024-01-25T09:20:53;4.80;99.90
21759;DHT22;11041;50.854;20.580;2024-01-25T09:23:20;4.80;99.90
21759;DHT22;11041;50.854;20.580;2024-01-25T09:25:46;4.80;99.90
21759;DHT22;11041;50.854;20.580;2024-01-25T09:28:13;4.80;99.90
21759;DHT22;11041;50.854;20.580;2024-01-25T09:30:43;4.90;99.90
21759;DHT22;11041;50.854;20.580;2024-01-25T09:33:10;4.90;99.90
21759;DHT22;11041;50.854;20.580;2024-01-25T09:35:36;4.90;99.90
21759;DHT22;11041;50.854;20.580;2024-01-25T09:38:05;4.90;99.90
21759;DHT22;11041;50.854;20.580;2024-01-25T09:40:31;4.90;99.90
21759;DHT22;11041;50.854;20.580;2024-01-25T09:42:59;5.00;99.90
21759;DHT22;11041;50.854;20.580;2024-01-25T09:45:26;5.00;99.90
21759;DHT22;11041;50.854;20.580;2024-01-25T09:47:53;4.90;99.90
21759;DHT22;11041;50.854;20.580;2024-01-25T09:50:21;4.90;99.90
21759;DHT22;11041;50.854;20.580;2024-01-25T09:52:54;4.90;99.90
21759;DHT22;11041;50.854;20.580;2024-01-25T09:55:27;4.90;99.90
21759;DHT22;11041;50.854;20.580;2024-01-25T09:57:55;5.00;99.90
21759;DHT22;11041;50.854;20.580;2024-01-25T10:00:22;5.10;99.90
21759;DHT22;11041;50.854;20.580;2024-01-25T10:02:49;5.10;99.90
21759;DHT22;11041;50.854;20.580;2024-01-25T10:05:17;5.20;99.90
21759;DHT22;11041;50.854;20.580;2024-01-25T10:07:46;5.20;99.90
21759;DHT22;11041;50.854;20.580;2024-01-25T10:10:14;5.20;99.90
21759;DHT22;11041;50.854;20.580;2024-01-25T10:12:42;5.20;99.90
21759;DHT22;11041;50.854;20.580;2024-01-25T10:15:09;5.20;99.90
21759;DHT22;11041;50.854;20.580;2024-01-25T10:17:37;5.20;99.90
21759;DHT22;11041;50.854;20.580;2024-01-25T10:20:05;5.30;99.90
21759;DHT22;11041;50.854;20.580;2024-01-25T10:22:37;5.20;99.90
21759;DHT22;11041;50.854;20.580;2024-01-25T10:25:12;5.30;99.90
21759;DHT22;11041;50.854;20.580;2024-01-25T10:27:40;5.20;99.90
21759;DHT22;11041;50.854;20.580;2024-01-25T10:30:07;5.30;99.90
21759;DHT22;11041;50.854;20.580;2024-01-25T10:32:37;5.30;99.90
21759;DHT22;11041;50.854;20.580;2024-01-25T10:35:04;5.20;99.90
21759;DHT22;11041;50.854;20.580;2024-01-25T10:37:31;5.20;99.90
21759;DHT22;11041;50.854;20.580;2024-01-25T10:39:58;5.20;99.90
21759;DHT22;11041;50.854;20.580;2024-01-25T10:42:26;5.30;99.90
21759;DHT22;11041;50.854;20.580;2024-01-25T10:44:52;5.40;99.90
21759;DHT22;11041;50.854;20.580;2024-01-25T10:47:19;5.40;99.90
21759;DHT22;11041;50.854;20.580;2024-01-25T10:49:47;5.40;99.90
21759;DHT22;11041;50.854;20.580;2024-01-25T10:52:15;5.40;99.90
21759;DHT22;11041;50.854;20.580;2024-01-25T10:54:43;5.40;99.90
21759;DHT22;11041;50.854;20.580;2024-01-25T10:57:10;5.40;99.90
21759;DHT22;11041;50.854;20.580;2024-01-25T10:59:36;5.40;99.90
21759;DHT22;11041;50.854;20.580;2024-01-25T11:02:05;5.30;99.90
21759;DHT22;11041;50.854;20.580;2024-01-25T11:04:32;5.30;99.90
21759;DHT22;11041;50.854;20.580;2024-01-25T11:07:08;5.30;99.90
21759;DHT22;11041;50.854;20.580;2024-01-25T11:09:36;5.20;99.90
21759;DHT22;11041;50.854;20.580;2024-01-25T11:12:11;5.20;99.90
21759;DHT22;11041;50.854;20.580;2024-01-25T11:14:41;5.10;99.90
21759;DHT22;11041;50.854;20.580;2024-01-25T11:17:21;5.20;99.90
21759;DHT22;11041;50.854;20.580;2024-01-25T11:19:49;5.20;99.90
21759;DHT22;11041;50.854;20.580;2024-01-25T11:22:20;5.20;99.90
21759;DHT22;11041;50.854;20.580;2024-01-25T11:24:47;5.30;99.90
21759;DHT22;11041;50.854;20.580;2024-01-25T11:27:16;5.40;99.90
21759;DHT22;11041;50.854;20.580;2024-01-25T11:29:43;5.30;99.90
21759;DHT22;11041;50.854;20.580;2024-01-25T11:32:12;5.10;99.90
21759;DHT22;11041;50.854;20.580;2024-01-25T11:34:41;5.30;99.90
21759;DHT22;11041;50.854;20.580;2024-01-25T11:37:08;5.30;99.90
21759;DHT22;11041;50.854;20.580;2024-01-25T11:39:35;5.10;99.90
21759;DHT22;11041;50.854;20.580;2024-01-25T11:42:03;5.20;99.90
21759;DHT22;11041;50.854;20.580;2024-01-25T11:44:30;5.20;99.90
21759;DHT22;11041;50.854;20.580;2024-01-25T11:46:59;5.30;99.90
21759;DHT22;11041;50.854;20.580;2024-01-25T11:49:26;5.20;99.90
21759;DHT22;11041;50.854;20.580;2024-01-25T11:51:54;5.20;99.90
21759;DHT22;11041;50.854;20.580;2024-01-25T11:54:21;5.20;99.90
21759;DHT22;11041;50.854;20.580;2024-01-25T11:56:48;5.30;99.90
21759;DHT22;11041;50.854;20.580;2024-01-25T11:59:15;5.40;99.90
21759;DHT22;11041;50.854;20.580;2024-01-25T12:01:42;5.40;99.90
21759;DHT22;11041;50.854;20.580;2024-01-25T12:04:09;5.50;99.90
21759;DHT22;11041;50.854;20.580;2024-01-25T12:06:37;5.50;99.90
21759;DHT22;11041;50.854;20.580;2024-01-25T12:09:10;5.40;99.90
21759;DHT22;11041;50.854;20.580;2024-01-25T12:11:40;5.30;99.90
21759;DHT22;11041;50.854;20.580;2024-01-25T12:14:09;5.30;99.90
21759;DHT22;11041;50.854;20.580;2024-01-25T12:16:36;5.30;99.90
21759;DHT22;11041;50.854;20.580;2024-01-25T12:19:04;5.40;99.90
21759;DHT22;11041;50.854;20.580;2024-01-25T12:21:33;5.30;99.90
21759;DHT22;11041;50.854;20.580;2024-01-25T12:24:02;5.20;99.90
21759;DHT22;11041;50.854;20.580;2024-01-25T12:26:34;5.30;99.90
21759;DHT22;11041;50.854;20.580;2024-01-25T12:29:04;5.20;99.90
21759;DHT22;11041;50.854;20.580;2024-01-25T12:31:31;5.10;99.90
21759;DHT22;11041;50.854;20.580;2024-01-25T12:33:59;5.10;99.90
21759;DHT22;11041;50.854;20.580;2024-01-25T12:36:27;5.20;99.90
21759;DHT22;11041;50.854;20.580;2024-01-25T12:38:53;5.10;99.90
21759;DHT22;11041;50.854;20.580;2024-01-25T12:41:20;5.20;99.90
21759;DHT22;11041;50.854;20.580;2024-01-25T12:43:46;5.20;99.90
21759;DHT22;11041;50.854;20.580;2024-01-25T12:46:16;5.20;99.90
21759;DHT22;11041;50.854;20.580;2024-01-25T12:48:46;5.10;99.90
21759;DHT22;11041;50.854;20.580;2024-01-25T12:51:12;5.20;99.90
21759;DHT22;11041;50.854;20.580;2024-01-25T12:53:39;5.30;99.90
21759;DHT22;11041;50.854;20.580;2024-01-25T12:56:06;5.30;99.90
21759;DHT22;11041;50.854;20.580;2024-01-25T12:58:35;5.20;99.90
21759;DHT22;11041;50.854;20.580;2024-01-25T13:01:02;5.30;99.90
21759;DHT22;11041;50.854;20.580;2024-01-25T13:03:29;5.20;99.90
21759;DHT22;11041;50.854;20.580;2024-01-25T13:05:57;5.20;99.90
21759;DHT22;11041;50.854;20.580;2024-01-25T13:08:24;5.20;99.90
21759;DHT22;11041;50.854;20.580;2024-01-25T13:10:51;5.20;99.90
21759;DHT22;11041;50.854;20.580;2024-01-25T13:13:18;5.20;99.90
21759;DHT22;11041;50.854;20.580;2024-01-25T13:15:46;5.20;99.90
21759;DHT22;11041;50.854;20.580;2024-01-25T13:18:12;5.20;99.90
21759;DHT22;11041;50.854;20.580;2024-01-25T13:20:39;5.10;99.90
21759;DHT22;11041;50.854;20.580;2024-01-25T13:23:06;5.10;99.90
21759;DHT22;11041;50.854;20.580;2024-01-25T13:25:34;5.20;99.90
21759;DHT22;11041;50.854;20.580;2024-01-25T13:28:00;5.20;99.90
21759;DHT22;11041;50.854;20.580;2024-01-25T13:30:27;5.10;99.90
21759;DHT22;11041;50.854;20.580;2024-01-25T13:32:53;5.20;99.90
21759;DHT22;11041;50.854;20.580;2024-01-25T13:35:21;5.20;99.90
21759;DHT22;11041;50.854;20.580;2024-01-25T13:37:48;5.10;99.90
21759;DHT22;11041;50.854;20.580;2024-01-25T13:40:14;5.20;99.90
21759;DHT22;11041;50.854;20.580;2024-01-25T13:42:42;5.20;99.90
21759;DHT22;11041;50.854;20.580;2024-01-25T13:45:11;5.20;99.90
21759;DHT22;11041;50.854;20.580;2024-01-25T13:47:39;5.20;99.90
21759;DHT22;11041;50.854;20.580;2024-01-25T13:50:08;5.10;99.90
21759;DHT22;11041;50.854;20.580;2024-01-25T13:52:36;5.20;99.90
21759;DHT22;11041;50.854;20.580;2024-01-25T13:55:03;5.10;99.90
21759;DHT22;11041;50.854;20.580;2024-01-25T13:57:31;5.00;99.90
21759;DHT22;11041;50.854;20.580;2024-01-25T13:59:59;5.00;99.90
21759;DHT22;11041;50.854;20.580;2024-01-25T14:02:26;5.10;99.90
21759;DHT22;11041;50.854;20.580;2024-01-25T14:04:54;5.10;99.90
21759;DHT22;11041;50.854;20.580;2024-01-25T14:07:20;5.10;99.90
21759;DHT22;11041;50.854;20.580;2024-01-25T14:09:47;5.10;99.90
21759;DHT22;11041;50.854;20.580;2024-01-25T14:12:14;5.10;99.90
21759;DHT22;11041;50.854;20.580;2024-01-25T14:14:42;5.20;99.90
21759;DHT22;11041;50.854;20.580;2024-01-25T14:17:08;5.20;99.90
21759;DHT22;11041;50.854;20.580;2024-01-25T14:19:35;5.30;99.90
21759;DHT22;11041;50.854;20.580;2024-01-25T14:22:02;5.20;99.90
21759;DHT22;11041;50.854;20.580;2024-01-25T14:24:29;5.10;99.90
21759;DHT22;11041;50.854;20.580;2024-01-25T14:26:55;5.20;99.90
21759;DHT22;11041;50.854;20.580;2024-01-25T14:29:22;5.20;99.90
21759;DHT22;11041;50.854;20.580;2024-01-25T14:31:48;5.10;99.90
21759;DHT22;11041;50.854;20.580;2024-01-25T14:34:15;5.20;99.90
21759;DHT22;11041;50.854;20.580;2024-01-25T14:36:41;5.10;99.90
21759;DHT22;11041;50.854;20.580;2024-01-25T14:39:08;5.10;99.90
21759;DHT22;11041;50.854;20.580;2024-01-25T14:41:34;5.00;99.90
21759;DHT22;11041;50.854;20.580;2024-01-25T14:44:02;5.00;99.90
21759;DHT22;11041;50.854;20.580;2024-01-25T14:46:29;5.10;99.90
21759;DHT22;11041;50.854;20.580;2024-01-25T14:48:56;5.00;99.90
21759;DHT22;11041;50.854;20.580;2024-01-25T14:51:24;5.00;99.90
21759;DHT22;11041;50.854;20.580;2024-01-25T14:53:51;5.00;99.90
21759;DHT22;11041;50.854;20.580;2024-01-25T14:56:18;4.90;99.90
21759;DHT22;11041;50.854;20.580;2024-01-25T14:58:44;4.90;99.90
21759;DHT22;11041;50.854;20.580;2024-01-25T15:01:15;4.90;99.90
21759;DHT22;11041;50.854;20.580;2024-01-25T15:03:48;4.90;99.90
21759;DHT22;11041;50.854;20.580;2024-01-25T15:06:16;4.90;99.90
21759;DHT22;11041;50.854;20.580;2024-01-25T15:08:42;4.90;99.90
21759;DHT22;11041;50.854;20.580;2024-01-25T15:11:09;4.80;99.90
21759;DHT22;11041;50.854;20.580;2024-01-25T15:13:35;4.90;99.90
21759;DHT22;11041;50.854;20.580;2024-01-25T15:16:04;5.00;99.90
21759;DHT22;11041;50.854;20.580;2024-01-25T15:18:32;4.90;99.90
21759;DHT22;11041;50.854;20.580;2024-01-25T15:21:00;5.00;99.90
21759;DHT22;11041;50.854;20.580;2024-01-25T15:23:26;4.90;99.90
21759;DHT22;11041;50.854;20.580;2024-01-25T15:25:56;4.90;99.90
21759;DHT22;11041;50.854;20.580;2024-01-25T15:28:26;4.90;99.90
21759;DHT22;11041;50.854;20.580;2024-01-25T15:30:55;4.90;99.90
21759;DHT22;11041;50.854;20.580;2024-01-25T15:33:25;4.90;99.90